createdAt,value
2019-02-14T00:00:45.965Z,7.09
2019-02-14T00:01:45.948Z,7.14
2019-02-14T00:02:45.943Z,7.12
2019-02-14T00:03:45.954Z,7.15
2019-02-14T00:04:45.941Z,7.15
2019-02-14T00:05:45.908Z,7.12
2019-02-14T00:06:45.891Z,7.12
2019-02-14T00:07:45.902Z,7.11
2019-02-14T00:08:45.870Z,7.14
2019-02-14T00:09:45.896Z,7.08
2019-02-14T00:10:45.855Z,7.16
2019-02-14T00:11:45.847Z,7.19
2019-02-14T00:12:45.834Z,7.15
2019-02-14T00:13:45.825Z,7.14
2019-02-14T00:14:45.827Z,7.09
2019-02-14T00:15:45.792Z,7.09
2019-02-14T00:16:45.805Z,7.16
2019-02-14T00:17:45.784Z,7.15
2019-02-14T00:18:45.770Z,7.18
2019-02-14T00:19:45.756Z,7.19
2019-02-14T00:20:45.775Z,7.11
2019-02-14T00:21:45.738Z,7.08
2019-02-14T00:22:45.730Z,7.12
2019-02-14T00:23:45.722Z,7.14
2019-02-14T00:24:45.724Z,7.12
2019-02-14T00:25:45.696Z,7.01
2019-02-14T00:26:45.713Z,7.11
2019-02-14T00:27:45.669Z,7.11
2019-02-14T00:28:45.683Z,7.14
2019-02-14T00:29:45.657Z,7.16
2019-02-14T00:30:45.645Z,7.08
2019-02-14T00:31:45.653Z,7.09
2019-02-14T00:32:45.621Z,7.08
2019-02-14T00:33:45.604Z,7.09
2019-02-14T00:34:45.605Z,7.07
2019-02-14T00:35:45.590Z,7.08
2019-02-14T00:36:45.613Z,7.12
2019-02-14T00:37:45.563Z,7.09
2019-02-14T00:38:45.549Z,7.11
2019-02-14T00:39:45.579Z,7.05
2019-02-14T00:40:45.538Z,7.04
2019-02-14T00:41:45.527Z,7.04
2019-02-14T00:42:45.524Z,7.00
2019-02-14T00:43:45.541Z,7.09
2019-02-14T00:44:45.495Z,7.05
2019-02-14T00:45:45.483Z,7.08
2019-02-14T00:46:45.468Z,7.04
2019-02-14T00:47:45.466Z,7.08
2019-02-14T00:48:45.456Z,7.08
2019-02-14T00:49:45.464Z,7.12
2019-02-14T00:50:45.431Z,7.04
2019-02-14T00:51:45.415Z,7.08
2019-02-14T00:52:45.406Z,7.05
2019-02-14T00:53:45.412Z,7.01
2019-02-14T00:54:45.416Z,7.04
2019-02-14T00:55:45.377Z,7.05
2019-02-14T00:56:45.366Z,7.07
2019-02-14T00:57:45.366Z,7.11
2019-02-14T00:58:45.343Z,7.09
2019-02-14T00:59:45.338Z,7.08
2019-02-14T01:00:45.358Z,7.07
2019-02-14T01:01:45.314Z,7.09
2019-02-14T01:02:45.307Z,7.11
2019-02-14T01:03:45.293Z,7.11
2019-02-14T01:04:45.284Z,7.08
2019-02-14T01:05:45.275Z,7.07
2019-02-14T01:06:45.286Z,7.08
2019-02-14T01:07:45.251Z,7.09
2019-02-14T01:08:45.239Z,7.15
2019-02-14T01:09:45.230Z,7.11
2019-02-14T01:10:45.224Z,7.11
2019-02-14T01:11:45.201Z,7.11
2019-02-14T01:12:45.212Z,7.12
2019-02-14T01:13:45.193Z,7.09
2019-02-14T01:14:45.177Z,7.09
2019-02-14T01:15:45.168Z,7.12
2019-02-14T01:16:45.156Z,7.16
2019-02-14T01:17:45.169Z,7.11
2019-02-14T01:18:45.127Z,7.16
2019-02-14T01:19:45.118Z,7.12
2019-02-14T01:20:45.134Z,7.15
2019-02-14T01:21:45.102Z,7.11
2019-02-14T01:22:45.101Z,7.16
2019-02-14T01:23:45.083Z,7.19
2019-02-14T01:24:45.065Z,7.12
2019-02-14T01:25:45.064Z,7.16
2019-02-14T01:26:45.079Z,7.14
2019-02-14T01:27:45.047Z,7.09
2019-02-14T01:28:45.051Z,7.12
2019-02-14T01:29:45.012Z,7.11
2019-02-14T01:30:44.999Z,7.07
2019-02-14T01:31:45.013Z,7.07
2019-02-14T01:32:44.980Z,7.11
2019-02-14T01:33:44.986Z,7.07
2019-02-14T01:34:44.989Z,7.09
2019-02-14T01:35:44.958Z,7.12
2019-02-14T01:36:44.942Z,7.07
2019-02-14T01:37:44.968Z,7.08
2019-02-14T01:38:44.917Z,7.08
2019-02-14T01:39:44.920Z,7.09
2019-02-14T01:40:44.900Z,7.05
2019-02-14T01:41:44.881Z,6.97
2019-02-14T01:42:44.872Z,7.01
2019-02-14T01:43:44.884Z,6.99
2019-02-14T01:44:44.853Z,6.97
2019-02-14T01:45:44.852Z,7.01
2019-02-14T01:46:44.839Z,6.94
2019-02-14T01:47:44.839Z,7.00
2019-02-14T01:48:44.847Z,6.94
2019-02-14T01:49:45.536Z,6.96
2019-02-14T01:50:44.787Z,6.94
2019-02-14T01:51:44.782Z,6.90
2019-02-14T01:52:44.768Z,6.83
2019-02-14T01:53:44.763Z,6.94
2019-02-14T01:54:44.774Z,6.94
2019-02-14T01:55:44.741Z,6.96
2019-02-14T01:56:44.736Z,6.91
2019-02-14T01:57:44.722Z,6.91
2019-02-14T01:58:44.712Z,6.94
2019-02-14T01:59:44.725Z,7.00
2019-02-14T02:00:44.700Z,7.00
2019-02-14T02:01:44.722Z,7.00
2019-02-14T02:02:44.669Z,6.94
2019-02-14T02:03:44.687Z,6.93
2019-02-14T02:04:44.641Z,6.97
2019-02-14T02:05:50.656Z,6.94
2019-02-14T02:06:45.627Z,6.91
2019-02-14T02:07:44.619Z,6.93
2019-02-14T02:08:44.615Z,7.00
2019-02-14T02:14:00.931Z,7.00
2019-02-14T02:15:00.901Z,6.96
2019-02-14T02:16:00.895Z,6.93
2019-02-14T02:17:00.891Z,7.00
2019-02-14T02:18:00.862Z,6.93
2019-02-14T02:19:00.887Z,6.97
2019-02-14T02:20:00.841Z,7.00
2019-02-14T02:21:00.845Z,7.00
2019-02-14T02:22:00.827Z,7.05
2019-02-14T02:23:00.816Z,7.04
2019-02-14T02:24:00.825Z,7.08
2019-02-14T02:25:00.810Z,6.99
2019-02-14T02:26:00.778Z,7.09
2019-02-14T02:27:00.813Z,7.14
2019-02-14T02:28:00.767Z,7.04
2019-02-14T02:29:00.753Z,7.08
2019-02-14T02:30:00.784Z,7.04
2019-02-14T02:31:00.733Z,7.09
2019-02-14T02:32:00.722Z,7.04
2019-02-14T02:33:00.712Z,7.09
2019-02-14T02:34:00.703Z,7.05
2019-02-14T02:35:00.696Z,7.01
2019-02-14T02:36:00.937Z,7.04
2019-02-14T02:37:00.661Z,7.00
2019-02-14T02:38:00.670Z,6.94
2019-02-14T02:39:00.641Z,7.04
2019-02-14T02:40:00.638Z,7.00
2019-02-14T02:41:00.664Z,7.05
2019-02-14T02:42:00.613Z,6.99
2019-02-14T02:43:00.604Z,7.08
2019-02-14T02:44:00.622Z,7.07
2019-02-14T02:45:00.586Z,7.12
2019-02-14T02:46:00.580Z,7.11
2019-02-14T02:47:00.571Z,7.16
2019-02-14T02:48:00.553Z,7.08
2019-02-14T02:49:00.541Z,7.12
2019-02-14T02:50:00.615Z,7.11
2019-02-14T02:51:00.533Z,7.04
2019-02-14T02:52:00.528Z,7.07
2019-02-14T02:53:00.499Z,7.09
2019-02-14T02:54:00.535Z,7.14
2019-02-14T02:55:00.484Z,7.08
2019-02-14T02:56:00.468Z,7.11
2019-02-14T02:57:00.450Z,7.08
2019-02-14T02:58:00.439Z,7.11
2019-02-14T02:59:00.466Z,7.07
2019-02-14T03:00:00.427Z,7.12
2019-02-14T03:01:00.408Z,7.07
2019-02-14T03:02:00.401Z,7.12
2019-02-14T03:03:00.391Z,7.07
2019-02-14T03:04:00.380Z,7.09
2019-02-14T03:05:00.407Z,7.05
2019-02-14T03:06:08.620Z,7.11
2019-02-14T03:07:01.358Z,7.05
2019-02-14T03:08:00.341Z,7.05
2019-02-14T03:09:00.341Z,7.08
2019-02-14T03:10:00.324Z,7.09
2019-02-14T03:11:00.323Z,6.99
2019-02-14T03:12:00.300Z,7.05
2019-02-14T03:13:00.306Z,7.00
2019-02-14T03:14:00.279Z,7.00
2019-02-14T03:15:00.354Z,7.00
2019-02-14T03:16:00.277Z,7.04
2019-02-14T03:17:00.249Z,7.01
2019-02-14T03:18:00.243Z,7.05
2019-02-14T03:19:00.234Z,6.97
2019-02-14T03:20:00.257Z,6.99
2019-02-14T03:21:00.209Z,7.01
2019-02-14T03:22:00.209Z,7.00
2019-02-14T03:23:01.035Z,7.00
2019-02-14T03:24:00.165Z,6.99
2019-02-14T03:25:00.164Z,6.94
2019-02-14T03:26:00.156Z,6.99
2019-02-14T03:27:00.172Z,6.96
2019-02-14T03:28:00.131Z,6.97
2019-02-14T03:29:00.118Z,7.05
2019-02-14T03:30:00.134Z,7.08
2019-02-14T03:31:00.104Z,7.09
2019-02-14T03:32:00.093Z,7.05
2019-02-14T03:33:00.107Z,7.12
2019-02-14T03:34:00.100Z,7.08
2019-02-14T03:35:00.053Z,7.05
2019-02-14T03:36:00.050Z,7.01
2019-02-14T03:37:00.987Z,7.04
2019-02-14T03:38:00.532Z,6.97
2019-02-14T03:39:00.031Z,7.01
2019-02-14T03:40:00.047Z,7.01
2019-02-14T03:40:59.991Z,6.96
2019-02-14T03:41:59.977Z,6.96
2019-02-14T03:42:59.976Z,6.97
2019-02-14T03:44:00.025Z,6.86
2019-02-14T03:45:00.025Z,6.91
2019-02-14T03:45:59.944Z,6.76
2019-02-14T03:46:59.929Z,6.79
2019-02-14T03:47:59.915Z,6.82
2019-02-14T03:49:00.533Z,6.79
2019-02-14T03:49:59.927Z,6.73
2019-02-14T03:50:59.890Z,6.78
2019-02-14T03:51:59.891Z,6.73
2019-02-14T03:52:59.867Z,6.75
2019-02-14T03:53:59.863Z,6.75
2019-02-14T03:54:59.871Z,6.79
2019-02-14T03:55:59.867Z,6.76
2019-02-14T03:56:59.832Z,6.75
2019-02-14T03:57:59.828Z,6.79
2019-02-14T03:58:59.847Z,6.76
2019-02-14T03:59:59.819Z,6.73
2019-02-14T04:00:59.815Z,6.76
2019-02-14T04:01:59.800Z,6.81
2019-02-14T04:02:59.770Z,6.78
2019-02-14T04:03:59.760Z,6.82
2019-02-14T04:04:59.757Z,6.86
2019-02-14T04:05:59.753Z,6.87
2019-02-14T04:06:59.718Z,6.79
2019-02-14T04:07:59.708Z,6.78
2019-02-14T04:08:59.698Z,6.75
2019-02-14T04:09:59.701Z,6.78
2019-02-14T04:10:59.722Z,6.76
2019-02-14T04:11:59.694Z,6.76
2019-02-14T04:12:59.730Z,6.72
2019-02-14T04:13:59.640Z,6.68
2019-02-14T04:14:59.634Z,6.81
2019-02-14T04:15:59.641Z,6.78
2019-02-14T04:16:59.617Z,6.81
2019-02-14T04:17:59.616Z,6.83
2019-02-14T04:18:59.591Z,6.72
2019-02-14T04:19:59.581Z,6.79
2019-02-14T04:20:59.607Z,6.73
2019-02-14T04:21:59.588Z,6.76
2019-02-14T04:22:59.566Z,6.78
2019-02-14T04:23:59.558Z,6.78
2019-02-14T04:24:59.576Z,6.81
2019-02-14T04:25:59.549Z,6.86
2019-02-14T04:26:59.555Z,6.78
2019-02-14T04:27:59.499Z,6.78
2019-02-14T04:28:59.498Z,6.89
2019-02-14T04:29:59.515Z,6.75
2019-02-14T04:30:59.487Z,6.87
2019-02-14T04:31:59.487Z,6.87
2019-02-14T04:32:59.451Z,6.89
2019-02-14T04:33:59.435Z,6.86
2019-02-14T04:34:59.435Z,6.89
2019-02-14T04:35:59.441Z,6.86
2019-02-14T04:36:59.432Z,6.96
2019-02-14T04:37:59.393Z,6.91
2019-02-14T04:38:59.404Z,6.91
2019-02-14T04:39:59.392Z,6.94
2019-02-14T04:40:59.397Z,6.91
2019-02-14T04:41:59.404Z,6.96
2019-02-14T04:42:59.364Z,6.93
2019-02-14T04:43:59.340Z,6.94
2019-02-14T04:44:59.327Z,6.99
2019-02-14T04:45:59.328Z,7.00
2019-02-14T04:46:59.326Z,6.93
2019-02-14T04:47:59.287Z,6.96
2019-02-14T04:48:59.299Z,6.94
2019-02-14T04:49:59.274Z,6.93
2019-02-14T04:50:59.285Z,6.91
2019-02-14T04:51:59.276Z,6.94
2019-02-14T04:52:59.255Z,6.93
2019-02-14T04:53:59.231Z,7.01
2019-02-14T04:54:59.228Z,6.97
2019-02-14T04:55:59.226Z,6.96
2019-02-14T04:56:59.201Z,6.91
2019-02-14T04:57:59.221Z,6.93
2019-02-14T04:58:59.172Z,6.93
2019-02-14T04:59:59.169Z,6.93
2019-02-14T05:00:59.177Z,6.93
2019-02-14T05:01:59.141Z,6.94
2019-02-14T05:02:59.131Z,6.93
2019-02-14T05:03:59.149Z,6.94
2019-02-14T05:04:59.133Z,6.93
2019-02-14T05:05:59.099Z,7.00
2019-02-14T05:06:59.100Z,7.05
2019-02-14T05:07:59.084Z,7.00
2019-02-14T05:08:59.096Z,6.94
2019-02-14T05:09:59.073Z,7.01
2019-02-14T05:10:59.060Z,7.08
2019-02-14T05:11:59.040Z,7.01
2019-02-14T05:12:59.035Z,7.05
2019-02-14T05:13:59.026Z,7.05
2019-02-14T05:14:59.026Z,7.01
2019-02-14T05:15:58.998Z,7.07
2019-02-14T05:16:58.977Z,7.08
2019-02-14T05:17:58.985Z,7.08
2019-02-14T05:18:58.971Z,7.09
2019-02-14T05:19:58.977Z,7.12
2019-02-14T05:20:58.956Z,7.11
2019-02-14T05:21:58.957Z,7.19
2019-02-14T05:22:58.919Z,7.14
2019-02-14T05:23:58.912Z,7.16
2019-02-14T05:24:58.936Z,7.16
2019-02-14T05:25:58.889Z,7.15
2019-02-14T05:26:58.885Z,7.14
2019-02-14T05:27:58.875Z,7.11
2019-02-14T05:28:58.852Z,7.14
2019-02-14T05:29:59.547Z,7.07
2019-02-14T05:30:58.863Z,7.05
2019-02-14T05:31:58.826Z,7.05
2019-02-14T05:32:58.825Z,7.01
2019-02-14T05:33:58.803Z,7.14
2019-02-14T05:34:58.792Z,7.05
2019-02-14T05:35:58.800Z,7.11
2019-02-14T05:36:58.764Z,7.08
2019-02-14T05:37:58.763Z,7.09
2019-02-14T05:38:58.766Z,7.12
2019-02-14T05:39:58.741Z,7.07
2019-02-14T05:40:58.742Z,7.07
2019-02-14T05:41:58.736Z,7.08
2019-02-14T05:42:58.728Z,7.05
2019-02-14T05:43:58.698Z,7.04
2019-02-14T05:44:58.696Z,7.05
2019-02-14T05:45:58.726Z,7.05
2019-02-14T05:46:58.669Z,7.05
2019-02-14T05:47:58.662Z,7.08
2019-02-14T05:48:58.642Z,6.97
2019-02-14T05:49:58.638Z,7.09
2019-02-14T05:50:58.630Z,7.00
2019-02-14T05:51:58.643Z,6.97
2019-02-14T05:52:58.605Z,7.04
2019-02-14T05:53:58.591Z,6.97
2019-02-14T05:54:58.578Z,7.00
2019-02-14T05:55:58.573Z,6.97
2019-02-14T05:56:58.567Z,6.99
2019-02-14T05:57:58.568Z,7.01
2019-02-14T05:58:58.540Z,7.08
2019-02-14T05:59:58.529Z,7.08
2019-02-14T06:00:58.518Z,6.96
2019-02-14T06:01:58.526Z,6.96
2019-02-14T06:02:58.529Z,6.93
2019-02-14T06:03:58.486Z,6.97
2019-02-14T06:04:58.481Z,6.93
2019-02-14T06:05:58.466Z,6.91
2019-02-14T06:07:01.041Z,6.96
2019-02-14T06:07:58.478Z,6.90
2019-02-14T06:08:58.442Z,6.90
2019-02-14T06:09:58.420Z,6.82
2019-02-14T06:10:58.419Z,6.90
2019-02-14T06:11:58.405Z,6.79
2019-02-14T06:12:58.386Z,6.87
2019-02-14T06:13:58.398Z,6.86
2019-02-14T06:14:58.364Z,6.79
2019-02-14T06:15:58.361Z,6.79
2019-02-14T06:16:58.352Z,6.87
2019-02-14T06:17:58.344Z,6.89
2019-02-14T06:18:58.350Z,6.86
2019-02-14T06:19:58.322Z,6.93
2019-02-14T06:20:58.306Z,6.83
2019-02-14T06:21:58.296Z,7.00
2019-02-14T06:22:58.301Z,7.00
2019-02-14T06:23:58.300Z,6.96
2019-02-14T06:24:58.292Z,6.96
2019-02-14T06:25:58.265Z,6.94
2019-02-14T06:26:58.247Z,6.90
2019-02-14T06:27:58.233Z,6.91
2019-02-14T06:28:58.229Z,6.91
2019-02-14T06:29:59.146Z,6.89
2019-02-14T06:30:58.246Z,7.00
2019-02-14T06:31:58.203Z,6.96
2019-02-14T06:32:58.178Z,7.01
2019-02-14T06:33:58.175Z,7.05
2019-02-14T06:34:58.158Z,7.12
2019-02-14T06:35:58.150Z,7.05
2019-02-14T06:36:58.176Z,7.05
2019-02-14T06:37:58.134Z,7.04
2019-02-14T06:38:58.118Z,7.12
2019-02-14T06:39:58.116Z,7.12
2019-02-14T06:40:58.089Z,7.18
2019-02-14T06:41:58.078Z,7.14
2019-02-14T06:42:58.103Z,7.18
2019-02-14T06:43:58.093Z,7.19
2019-02-14T06:44:58.050Z,7.12
2019-02-14T06:45:58.047Z,7.19
2019-02-14T06:46:58.076Z,7.14
2019-02-14T06:47:58.059Z,7.15
2019-02-14T06:48:58.033Z,7.11
2019-02-14T06:49:58.038Z,7.18
2019-02-14T06:50:58.001Z,7.12
2019-02-14T06:51:57.995Z,7.14
2019-02-14T06:52:58.009Z,7.16
2019-02-14T06:53:57.962Z,7.18
2019-02-14T06:54:57.952Z,7.12
2019-02-14T06:55:57.932Z,7.15
2019-02-14T06:56:57.934Z,7.14
2019-02-14T06:57:57.975Z,7.14
2019-02-14T06:58:57.911Z,7.16
2019-02-14T06:59:57.900Z,7.15
2019-02-14T07:00:57.902Z,7.15
2019-02-14T07:01:57.880Z,7.12
2019-02-14T07:02:57.902Z,7.21
2019-02-14T07:03:57.867Z,7.29
2019-02-14T07:04:57.844Z,7.26
2019-02-14T07:05:57.832Z,7.24
2019-02-14T07:06:57.817Z,7.16
2019-02-14T07:07:57.847Z,7.19
2019-02-14T07:08:57.807Z,7.29
2019-02-14T07:09:57.801Z,7.23
2019-02-14T07:10:57.797Z,7.16
2019-02-14T07:11:57.775Z,7.27
2019-02-14T07:12:57.760Z,7.29
2019-02-14T07:13:57.777Z,7.33
2019-02-14T07:14:57.771Z,7.30
2019-02-14T07:15:57.746Z,7.30
2019-02-14T07:16:57.764Z,7.30
2019-02-14T07:17:57.728Z,7.32
2019-02-14T07:18:57.701Z,7.30
2019-02-14T07:19:57.679Z,7.29
2019-02-14T07:20:57.681Z,7.27
2019-02-14T07:21:57.669Z,7.34
2019-02-14T07:22:57.655Z,7.34
2019-02-14T07:23:57.662Z,7.34
2019-02-14T07:24:57.638Z,7.39
2019-02-14T07:25:57.620Z,7.33
2019-02-14T07:26:57.609Z,7.36
2019-02-14T07:27:57.598Z,7.34
2019-02-14T07:28:57.627Z,7.36
2019-02-14T07:29:57.588Z,7.39
2019-02-14T07:30:57.592Z,7.34
2019-02-14T07:31:57.554Z,7.36
2019-02-14T07:32:57.560Z,7.36
2019-02-14T07:33:57.561Z,7.36
2019-02-14T07:34:57.566Z,7.39
2019-02-14T07:35:57.517Z,7.37
2019-02-14T07:36:57.500Z,7.45
2019-02-14T07:37:57.511Z,7.47
2019-02-14T07:38:57.508Z,7.47
2019-02-14T07:39:57.469Z,7.47
2019-02-14T07:40:57.509Z,7.48
2019-02-14T07:41:57.455Z,7.47
2019-02-14T07:42:57.443Z,7.42
2019-02-14T07:43:57.435Z,7.47
2019-02-14T07:44:57.445Z,7.41
2019-02-14T07:45:57.413Z,7.39
2019-02-14T07:46:57.400Z,7.36
2019-02-14T07:47:57.388Z,7.39
2019-02-14T07:48:57.372Z,7.45
2019-02-14T07:49:57.375Z,7.44
2019-02-14T07:50:57.369Z,7.50
2019-02-14T07:51:57.342Z,7.48
2019-02-14T07:52:57.341Z,7.51
2019-02-14T07:53:57.332Z,7.47
2019-02-14T07:54:57.387Z,7.52
2019-02-14T07:55:57.322Z,7.58
2019-02-14T07:56:57.285Z,7.57
2019-02-14T07:57:57.274Z,7.62
2019-02-14T07:58:57.274Z,7.62
2019-02-14T07:59:57.261Z,7.74
2019-02-14T08:00:57.288Z,7.76
2019-02-14T08:01:57.252Z,7.71
2019-02-14T08:02:57.232Z,7.74
2019-02-14T08:03:57.214Z,7.70
2019-02-14T08:04:57.209Z,7.67
2019-02-14T08:05:57.206Z,7.69
2019-02-14T08:06:57.205Z,7.74
2019-02-14T08:07:57.185Z,7.69
2019-02-14T08:08:57.157Z,7.69
2019-02-14T08:09:57.156Z,7.73
2019-02-14T08:10:57.217Z,7.69
2019-02-14T08:11:57.152Z,7.73
2019-02-14T08:12:57.134Z,7.70
2019-02-14T08:13:57.126Z,7.79
2019-02-14T08:14:57.097Z,7.74
2019-02-14T08:15:57.122Z,7.79
2019-02-14T08:16:57.088Z,7.74
2019-02-14T08:17:57.068Z,7.82
2019-02-14T08:18:57.072Z,7.81
2019-02-14T08:19:57.053Z,7.84
2019-02-14T08:20:57.041Z,7.86
2019-02-14T08:21:57.048Z,7.84
2019-02-14T08:22:57.018Z,7.82
2019-02-14T08:23:57.011Z,7.86
2019-02-14T08:24:56.992Z,7.84
2019-02-14T08:25:56.983Z,7.85
2019-02-14T08:26:57.004Z,7.86
2019-02-14T08:27:56.966Z,7.89
2019-02-14T08:28:56.952Z,8.07
2019-02-14T08:29:56.942Z,8.06
2019-02-14T08:30:56.928Z,8.03
2019-02-14T08:31:56.920Z,8.06
2019-02-14T08:32:56.939Z,7.95
2019-02-14T08:33:56.893Z,7.96
2019-02-14T08:34:56.895Z,7.99
2019-02-14T08:35:56.886Z,8.00
2019-02-14T08:36:56.866Z,8.09
2019-02-14T08:37:56.855Z,8.12
2019-02-14T08:38:56.855Z,8.09
2019-02-14T08:39:56.829Z,8.14
2019-02-14T08:40:56.827Z,8.22
2019-02-14T08:41:56.822Z,8.20
2019-02-14T08:42:58.592Z,8.37
2019-02-14T08:43:56.817Z,8.36
2019-02-14T08:44:56.774Z,8.31
2019-02-14T08:45:56.768Z,8.32
2019-02-14T08:46:56.755Z,8.27
2019-02-14T08:47:56.749Z,8.36
2019-02-14T08:48:56.760Z,8.43
2019-02-14T08:49:56.730Z,8.32
2019-02-14T08:50:56.714Z,8.34
2019-02-14T08:51:56.706Z,8.32
2019-02-14T08:52:56.696Z,8.36
2019-02-14T08:53:56.702Z,8.31
2019-02-14T08:54:56.701Z,8.39
2019-02-14T08:55:56.663Z,8.40
2019-02-14T08:56:56.646Z,8.40
2019-02-14T08:57:56.644Z,8.47
2019-02-14T08:58:56.624Z,8.43
2019-02-14T08:59:56.638Z,8.37
2019-02-14T09:00:56.609Z,8.49
2019-02-14T09:01:57.599Z,8.49
2019-02-14T09:02:56.589Z,8.58
2019-02-14T09:03:56.616Z,8.52
2019-02-14T09:04:56.574Z,8.60
2019-02-14T09:05:56.559Z,8.57
2019-02-14T09:06:56.547Z,8.63
2019-02-14T09:07:56.547Z,8.83
2019-02-14T09:08:56.527Z,8.79
2019-02-14T09:09:56.534Z,8.85
2019-02-14T09:10:56.506Z,9.00
2019-02-14T09:11:56.514Z,8.93
2019-02-14T09:12:56.484Z,9.10
2019-02-14T09:13:56.471Z,9.03
2019-02-14T09:14:56.460Z,9.15
2019-02-14T09:15:56.453Z,9.26
2019-02-14T09:16:56.459Z,9.26
2019-02-14T09:17:56.431Z,9.30
2019-02-14T09:18:56.416Z,9.30
2019-02-14T09:19:56.399Z,9.32
2019-02-14T09:20:56.401Z,9.31
2019-02-14T09:21:56.415Z,9.26
2019-02-14T09:22:56.370Z,9.34
2019-02-14T09:23:56.357Z,9.41
2019-02-14T09:24:56.354Z,9.48
2019-02-14T09:25:56.342Z,9.62
2019-02-14T09:26:56.338Z,9.67
2019-02-14T09:27:56.344Z,9.77
2019-02-14T09:28:56.305Z,9.77
2019-02-14T09:29:56.302Z,9.77
2019-02-14T09:30:56.290Z,9.77
2019-02-14T09:31:56.277Z,9.92
2019-02-14T09:32:56.309Z,9.99
2019-02-14T09:33:56.256Z,10.06
2019-02-14T09:34:56.253Z,9.96
2019-02-14T09:35:56.239Z,9.96
2019-02-14T09:36:56.215Z,9.98
2019-02-14T09:38:02.996Z,9.98
2019-02-14T09:38:57.286Z,10.06
2019-02-14T09:39:56.208Z,10.09
2019-02-14T09:40:56.177Z,10.14
2019-02-14T09:41:56.164Z,10.18
2019-02-14T09:42:56.156Z,10.26
2019-02-14T09:43:56.195Z,10.43
2019-02-14T09:44:56.139Z,10.49
2019-02-14T09:45:56.133Z,10.62
2019-02-14T09:46:56.126Z,10.54
2019-02-14T09:47:56.124Z,10.43
2019-02-14T09:48:56.109Z,10.24
2019-02-14T09:49:56.087Z,10.09
2019-02-14T09:50:56.132Z,10.09
2019-02-14T09:51:56.077Z,10.16
2019-02-14T09:52:56.070Z,10.13
2019-02-14T09:53:56.110Z,10.06
2019-02-14T09:54:56.022Z,10.04
2019-02-14T09:55:56.016Z,10.04
2019-02-14T09:56:56.009Z,10.28
2019-02-14T09:57:56.076Z,10.39
2019-02-14T09:58:55.989Z,10.34
2019-02-14T09:59:55.996Z,10.26
2019-02-14T10:00:55.967Z,10.25
2019-02-14T10:01:55.960Z,10.17
2019-02-14T10:02:55.940Z,10.44
2019-02-14T10:03:55.945Z,10.55
2019-02-14T10:04:55.954Z,10.63
2019-02-14T10:05:55.933Z,10.76
2019-02-14T10:06:55.912Z,10.87
2019-02-14T10:07:55.907Z,10.90
2019-02-14T10:08:55.875Z,10.90
2019-02-14T10:09:55.954Z,10.98
2019-02-14T10:10:55.895Z,10.99
2019-02-14T10:11:55.858Z,11.02
2019-02-14T10:12:55.836Z,11.05
2019-02-14T10:13:55.819Z,10.94
2019-02-14T10:14:55.814Z,10.99
2019-02-14T10:15:55.814Z,11.06
2019-02-14T10:16:55.817Z,11.31
2019-02-14T10:17:55.787Z,11.23
2019-02-14T10:18:55.772Z,11.63
2019-02-14T10:19:55.762Z,11.56
2019-02-14T10:20:55.820Z,11.77
2019-02-14T10:21:55.755Z,11.78
2019-02-14T10:22:55.725Z,11.77
2019-02-14T10:23:55.716Z,11.46
2019-02-14T10:24:55.733Z,11.36
2019-02-14T10:25:55.698Z,11.31
2019-02-14T10:26:55.722Z,11.60
2019-02-14T10:27:55.683Z,12.01
2019-02-14T10:28:55.669Z,13.04
2019-02-14T10:29:55.718Z,13.25
2019-02-14T10:30:55.644Z,13.10
2019-02-14T10:31:55.662Z,13.04
2019-02-14T10:32:55.640Z,13.53
2019-02-14T10:33:55.608Z,13.51
2019-02-14T10:34:55.603Z,13.17
2019-02-14T10:35:55.583Z,13.93
2019-02-14T10:36:55.584Z,14.48
2019-02-14T10:37:55.592Z,14.12
2019-02-14T10:38:55.563Z,12.67
2019-02-14T10:39:55.559Z,12.12
2019-02-14T10:40:55.531Z,11.82
2019-02-14T10:41:55.522Z,11.44
2019-02-14T10:42:55.541Z,11.20
2019-02-14T10:43:55.506Z,10.93
2019-02-14T10:44:55.489Z,10.90
2019-02-14T10:45:55.479Z,10.68
2019-02-14T10:46:55.465Z,10.84
2019-02-14T10:47:55.454Z,10.93
2019-02-14T10:48:55.472Z,10.76
2019-02-14T10:49:55.441Z,10.46
2019-02-14T10:50:55.430Z,10.39
2019-02-14T10:51:55.421Z,10.73
2019-02-14T10:52:55.402Z,10.93
2019-02-14T10:53:55.418Z,10.90
2019-02-14T10:54:55.379Z,11.02
2019-02-14T10:55:55.372Z,11.11
2019-02-14T10:56:55.364Z,11.12
2019-02-14T10:57:55.355Z,10.98
2019-02-14T10:58:55.367Z,10.99
2019-02-14T10:59:55.330Z,10.94
2019-02-14T11:00:55.321Z,10.95
2019-02-14T11:01:55.318Z,10.98
2019-02-14T11:02:55.309Z,11.16
2019-02-14T11:03:55.295Z,11.28
2019-02-14T11:04:55.300Z,11.35
2019-02-14T11:05:55.261Z,11.53
2019-02-14T11:06:55.254Z,11.38
2019-02-14T11:07:55.248Z,11.60
2019-02-14T11:08:55.240Z,11.51
2019-02-14T11:09:55.233Z,11.85
2019-02-14T11:10:55.253Z,13.01
2019-02-14T11:11:55.204Z,13.19
2019-02-14T11:12:55.186Z,14.11
2019-02-14T11:13:55.185Z,13.22
2019-02-14T11:14:55.177Z,13.35
2019-02-14T11:15:55.186Z,13.87
2019-02-14T11:16:55.144Z,13.19
2019-02-14T11:17:55.142Z,13.10
2019-02-14T11:18:55.136Z,14.05
2019-02-14T11:19:55.135Z,14.48
2019-02-14T11:20:55.139Z,15.16
2019-02-14T11:21:55.110Z,14.61
2019-02-14T11:22:55.097Z,15.55
2019-02-14T11:23:55.086Z,16.22
2019-02-14T11:24:55.063Z,16.34
2019-02-14T11:25:55.054Z,17.00
2019-02-14T11:26:55.059Z,17.74
2019-02-14T11:27:55.040Z,18.16
2019-02-14T11:28:55.028Z,18.69
2019-02-14T11:29:55.012Z,18.36
2019-02-14T11:30:54.999Z,18.26
2019-02-14T11:31:55.008Z,18.35
2019-02-14T11:32:54.999Z,18.51
2019-02-14T11:33:55.024Z,18.53
2019-02-14T11:34:54.959Z,18.54
2019-02-14T11:35:54.949Z,18.42
2019-02-14T11:36:54.935Z,18.60
2019-02-14T11:37:54.934Z,18.68
2019-02-14T11:38:54.937Z,18.38
2019-02-14T11:39:54.902Z,18.10
2019-02-14T11:40:54.897Z,18.13
2019-02-14T11:41:54.887Z,18.36
2019-02-14T11:42:54.882Z,18.29
2019-02-14T11:43:54.898Z,18.38
2019-02-14T11:44:54.874Z,18.41
2019-02-14T11:45:54.862Z,18.53
2019-02-14T11:46:54.835Z,18.39
2019-02-14T11:47:54.819Z,18.29
2019-02-14T11:48:54.806Z,18.34
2019-02-14T11:49:54.825Z,18.07
2019-02-14T11:50:54.804Z,18.10
2019-02-14T11:51:54.775Z,17.00
2019-02-14T11:52:55.776Z,17.22
2019-02-14T11:53:54.756Z,17.71
2019-02-14T11:54:54.768Z,17.43
2019-02-14T11:55:54.739Z,17.73
2019-02-14T11:56:54.717Z,17.83
2019-02-14T11:57:54.727Z,18.07
2019-02-14T11:58:54.699Z,16.77
2019-02-14T11:59:54.712Z,16.18
2019-02-14T12:00:54.734Z,16.55
2019-02-14T12:01:55.627Z,17.39
2019-02-14T12:02:56.087Z,17.80
2019-02-14T12:03:54.645Z,18.20
2019-02-14T12:04:54.646Z,17.65
2019-02-14T12:05:54.669Z,17.55
2019-02-14T12:06:54.641Z,18.29
2019-02-14T12:07:54.609Z,18.68
2019-02-14T12:09:00.053Z,18.86
2019-02-14T12:09:55.581Z,18.38
2019-02-14T12:10:54.584Z,17.91
2019-02-14T12:11:54.597Z,17.43
2019-02-14T12:12:54.560Z,17.12
2019-02-14T12:13:54.547Z,16.84
2019-02-14T12:14:54.534Z,17.12
2019-02-14T12:15:54.521Z,17.12
2019-02-14T12:16:54.594Z,17.47
2019-02-14T12:17:54.507Z,17.91
2019-02-14T12:18:54.491Z,18.11
2019-02-14T12:19:54.509Z,18.20
2019-02-14T12:20:54.470Z,18.38
2019-02-14T12:21:54.457Z,17.80
2019-02-14T12:22:54.476Z,17.76
2019-02-14T12:23:54.429Z,17.30
2019-02-14T12:24:54.426Z,17.28
2019-02-14T12:25:54.510Z,17.63
2019-02-14T12:26:54.406Z,17.99
2019-02-14T12:27:54.416Z,18.34
2019-02-14T12:28:54.382Z,18.38
2019-02-14T12:29:54.391Z,18.76
2019-02-14T12:30:54.357Z,18.62
2019-02-14T12:31:54.358Z,18.60
2019-02-14T12:32:54.364Z,18.97
2019-02-14T12:33:54.335Z,18.82
2019-02-14T12:34:54.327Z,19.25
2019-02-14T12:35:55.299Z,19.78
2019-02-14T12:36:54.297Z,19.57
2019-02-14T12:37:54.354Z,19.28
2019-02-14T12:38:54.292Z,19.58
2019-02-14T12:39:55.267Z,19.57
2019-02-14T12:40:54.257Z,19.94
2019-02-14T12:41:54.239Z,20.23
2019-02-14T12:42:54.235Z,20.26
2019-02-14T12:43:54.242Z,20.42
2019-02-14T12:44:54.211Z,19.65
2019-02-14T12:45:54.208Z,19.28
2019-02-14T12:46:54.204Z,19.23
2019-02-14T12:47:54.183Z,19.62
2019-02-14T12:48:54.189Z,19.57
2019-02-14T12:49:54.153Z,19.49
2019-02-14T12:50:54.191Z,19.85
2019-02-14T12:51:54.199Z,20.22
2019-02-14T12:52:54.132Z,20.81
2019-02-14T12:53:54.113Z,20.96
2019-02-14T12:54:54.107Z,20.75
2019-02-14T12:55:54.102Z,20.10
2019-02-14T12:56:54.108Z,19.94
2019-02-14T12:57:54.102Z,20.01
2019-02-14T12:58:54.068Z,20.33
2019-02-14T12:59:54.054Z,20.66
2019-02-14T13:00:54.037Z,20.98
2019-02-14T13:01:54.061Z,21.08
2019-02-14T13:02:54.068Z,21.26
2019-02-14T13:03:54.018Z,21.38
2019-02-14T13:04:54.047Z,20.82
2019-02-14T13:05:53.992Z,20.33
2019-02-14T13:06:53.976Z,20.05
2019-02-14T13:07:53.991Z,19.70
2019-02-14T13:08:53.968Z,19.23
2019-02-14T13:09:53.969Z,18.90
2019-02-14T13:10:54.038Z,18.86
2019-02-14T13:11:53.931Z,18.60
2019-02-14T13:12:53.921Z,18.39
2019-02-14T13:13:53.957Z,18.36
2019-02-14T13:14:53.908Z,18.82
2019-02-14T13:15:53.903Z,19.38